Terminal Aerodrome Forecast
Issued by NWS Memphis, TN

Home | Current Version | Previous Version | Text Only | Print | Product List | Glossary On
Versions: 1 2 3 4 5 6 7 8 9 10 11 12 13
282
FTUS44 KMEG 111731
TAFJBR
TAF
KJBR 111731Z 1118/1218 22013G22KT P6SM SKC
     FM120000 32010G16KT P6SM SCT035 BKN150
      TEMPO 1205/1209 BKN035
     FM121300 34013G20KT P6SM FEW250=

USA.gov is the U.S. government's official web portal to all federal, state and local government web resources and services.